Terminal Aerodrome Forecast
Issued by NWS

Home | Current Version | Previous Version | Graphics & Text | Print | Product List | Glossary On
Versions: 1 2 3 4 5 6 7 8 9 10 11 12 13 14 15 16 17
558
FTUS43 KGRB 280905 AAA
TAFCWA
TAF AMD
KCWA 280905Z 2809/2906 26010G17KT P6SM SCT018 OVC025
      TEMPO 2809/2813 BKN018
     FM281600 26009KT P6SM BKN035 BKN100
     FM282200 32007KT P6SM BKN050 BKN100
     FM290200 36006KT P6SM BKN050 OVC080
      AMD LTD TO CLD VIS AND WIND TIL 281100=

USA.gov is the U.S. government's official web portal to all federal, state and local government web resources and services.